Decoded Metar for SACO (CORDOBA in ARGENTINA) (IATA:COR) | Meteo·Mobile Aviation Weather
aviador You're here:

SACO Decoded Metar

CORDOBA in ARGENTINA
Report Time2018-09-23 12:00:00
UTC Time2018-09-23 12:28:39
Flight Rules vfr VFR
Wind220° at 13 kt
W.Decomp.*RWY 23: 12.9 kt HW 1.6 kt LCW
RWY 18: 9.5 kt HW 8.9 kt RCW
W.Rank220° ranks 28
Current wind is above 220° avg. (7.0)
Visibility9999 m
Phenomena:N/A
Clouds:Few 040 Hf
Expected CloudBase > 6,800 ft AGL from Temp-Dew spread
CeilingNone
Temp23°C (ISA +11)
Dew Point06°C (33% RH)
AAT17.4°C
QNH1010 hPa
Density Alt3,071 ft
Elevation1,555 ft
Report Wrong Elevation
Raw Report
SACO 231200Z 22013KT 9999 FEW040 23/06 Q1010 NOSIG=

Extra information for SACO:More info

Metar Taf Metar & Taf Last 4 Metars F.Rules Stats Wind Profile Meteogram Temp Stats Airport Information Weather charts Add Link Nearby VenuesMetar ALERT Operation Metar Decoded Social comments